Time;durP1;ratioP1;P1;durP2;ratioP2;P2;SDS_P1;SDS_P2;PMS_P1;PMS_P2;Temp;Humidity;BMP_temperature;BMP_pressure;BME280_temperature;BME280_humidity;BME280_pressure;Samples;Min_cycle;Max_cycle;Signal;HPM_P1;HPM_P2
2022/03/05 00:00:57;;;;;;;;;;;;;;;29.36;56.27;100868.50;4979193;27;69396;-40
2022/03/05 00:03:27;;;;;;;;;;;;;;;29.40;56.86;100876.00;4974267;28;66779;-40
2022/03/05 00:05:57;;;;;;;;;;;;;;;29.43;58.71;100874.75;4977950;27;70495;-40
2022/03/05 00:08:28;;;;;;;;;;;;;;;29.39;59.76;100871.63;4976581;28;65160;-39
2022/03/05 00:10:57;;;;;;;;;;;;;;;29.38;60.33;100879.94;4976745;28;69912;-38
2022/03/05 00:13:27;;;;;;;;;;;;;;;29.37;60.68;100879.13;4978016;28;66856;-39
2022/03/05 00:15:57;;;;;;;;;;;;;;;29.36;60.70;100893.69;4977084;28;70362;-38
2022/03/05 00:18:27;;;;;;;;;;;;;;;29.37;60.75;100892.63;4977170;28;66050;-38
2022/03/05 00:20:57;;;;;;;;;;;;;;;29.42;60.73;100893.84;4964921;28;69364;-38
2022/03/05 00:23:27;;;;;;;;;;;;;;;29.42;61.59;100889.31;4965425;28;66524;-39
2022/03/05 00:25:58;;;;;;;;;;;;;;;29.44;60.92;100886.38;4975582;28;69487;-38
2022/03/05 00:28:27;;;;;;;;;;;;;;;29.47;60.95;100897.59;4972785;28;65217;-42
2022/03/05 00:31:00;;;;;;;;;;;;;;;29.47;60.31;100902.16;4973772;28;69806;-38
2022/03/05 00:33:30;;;;;;;;;;;;;;;29.47;60.82;100894.06;4973981;28;65987;-39
2022/03/05 00:35:59;;;;;;;;;;;;;;;29.53;60.65;100902.16;4975407;28;69214;-38
2022/03/05 00:38:29;;;;;;;;;;;;;;;29.54;60.14;100903.81;4976200;28;64888;-38
2022/03/05 00:40:59;;;;;;;;;;;;;;;29.57;60.61;100907.97;4974183;28;69971;-38
2022/03/05 00:43:28;;;;;;;;;;;;;;;29.59;59.92;100912.13;4977029;28;66835;-39
2022/03/05 00:45:58;;;;;;;;;;;;;;;29.64;59.96;100914.22;4968060;28;70605;-38
2022/03/05 00:48:28;;;;;;;;;;;;;;;29.67;60.38;100907.56;4971131;28;65537;-38
2022/03/05 00:50:58;;;;;;;;;;;;;;;29.72;60.19;100905.88;4970193;28;69733;-38
2022/03/05 00:53:27;;;;;;;;;;;;;;;29.76;59.43;100912.53;4971421;28;65257;-38
2022/03/05 00:55:57;;;;;;;;;;;;;;;29.78;59.62;100910.47;4975971;28;70665;-38
2022/03/05 00:58:27;;;;;;;;;;;;;;;29.81;59.13;100914.59;4977142;28;66013;-38
2022/03/05 01:00:57;;;;;;;;;;;;;;;29.82;59.40;100927.09;4957034;28;69096;-38
2022/03/05 01:03:27;;;;;;;;;;;;;;;29.60;59.13;100883.22;4977428;28;66903;-37
2022/03/05 01:05:57;;;;;;;;;;;;;;;29.86;59.47;100932.91;4979603;28;70032;-38
2022/03/05 01:08:27;;;;;;;;;;;;;;;29.90;59.10;100928.75;4974599;28;66292;-38
2022/03/05 01:10:56;;;;;;;;;;;;;;;29.90;59.43;100943.09;4977867;28;69991;-39
2022/03/05 01:13:26;;;;;;;;;;;;;;;29.91;59.25;100942.03;4977889;27;65582;-38
2022/03/05 01:15:56;;;;;;;;;;;;;;;29.93;59.58;100941.84;4980675;28;70006;-39
2022/03/05 01:18:26;;;;;;;;;;;;;;;29.98;59.08;100952.84;4976125;27;66573;-38
2022/03/05 01:20:56;;;;;;;;;;;;;;;30.02;58.90;100954.91;4975690;28;69172;-38
2022/03/05 01:23:26;;;;;;;;;;;;;;;30.07;60.02;100962.38;4979220;28;65852;-38
2022/03/05 01:25:56;;;;;;;;;;;;;;;30.09;59.60;100960.31;4971482;28;70089;-39
2022/03/05 01:28:25;;;;;;;;;;;;;;;30.15;60.25;100959.44;4976182;28;65549;-39
2022/03/05 01:30:56;;;;;;;;;;;;;;;30.18;59.90;100969.84;4974977;28;70141;-39
2022/03/05 01:33:25;;;;;;;;;;;;;;;30.23;60.04;100971.94;4973073;28;66331;-48
2022/03/05 01:35:56;;;;;;;;;;;;;;;30.26;59.90;100977.75;4973667;28;70070;-39
2022/03/05 01:38:26;;;;;;;;;;;;;;;30.27;59.66;100984.81;4953222;28;66192;-39
2022/03/05 01:40:56;;;;;;;;;;;;;;;30.31;59.50;100987.91;4974720;28;69675;-39
2022/03/05 01:43:26;;;;;;;;;;;;;;;30.34;59.14;100989.38;4979890;28;66563;-39
2022/03/05 01:45:56;;;;;;;;;;;;;;;30.37;59.30;100987.09;4977493;28;69596;-39
2022/03/05 01:48:26;;;;;;;;;;;;;;;30.46;58.72;100998.50;4975347;28;66347;-40
2022/03/05 01:50:56;;;;;;;;;;;;;;;30.44;58.52;100995.16;4978051;28;70666;-39
2022/03/05 01:53:26;;;;;;;;;;;;;;;30.48;58.49;101008.06;4971816;28;65575;-39
2022/03/05 01:55:56;;;;;;;;;;;;;;;30.46;58.36;101009.31;4966616;28;69893;-39
2022/03/05 01:58:26;;;;;;;;;;;;;;;30.47;57.96;101011.78;4974189;28;66614;-40
2022/03/05 02:00:55;;;;;;;;;;;;;;;30.47;58.38;101022.63;4976853;28;69470;-40
2022/03/05 02:03:25;;;;;;;;;;;;;;;30.50;58.50;101026.78;4974711;28;66495;-40
2022/03/05 02:05:55;;;;;;;;;;;;;;;30.49;57.87;101025.13;4973922;28;70089;-40
2022/03/05 02:08:25;;;;;;;;;;;;;;;30.50;58.14;101024.06;4992286;27;67142;-40
2022/03/05 02:10:55;;;;;;;;;;;;;;;30.53;58.46;101020.94;4974580;28;69316;-38
2022/03/05 02:13:26;;;;;;;;;;;;;;;30.59;58.28;101021.94;4976359;28;66514;-40
2022/03/05 02:15:56;;;;;;;;;;;;;;;30.62;58.45;101025.09;4971387;28;70168;-38
2022/03/05 02:18:26;;;;;;;;;;;;;;;30.65;58.18;101024.66;4975633;28;66971;-38
2022/03/05 02:20:56;;;;;;;;;;;;;;;30.71;57.74;101029.19;4983101;27;69906;-39
2022/03/05 02:23:26;;;;;;;;;;;;;;;30.76;57.67;101031.25;4978787;27;66869;-38
2022/03/05 02:26:00;;;;;;;;;;;;;;;30.78;58.39;101028.31;4978427;27;69564;-39
2022/03/05 02:28:30;;;;;;;;;;;;;;;30.84;57.57;101041.03;4976384;28;65346;-39
2022/03/05 02:31:00;;;;;;;;;;;;;;;30.86;57.50;101041.66;4967652;28;69501;-39
2022/03/05 02:33:30;;;;;;;;;;;;;;;30.89;57.61;101041.22;4975779;28;66915;-39
2022/03/05 02:36:01;;;;;;;;;;;;;;;30.90;57.77;101037.47;4976018;28;68905;-39
2022/03/05 02:38:31;;;;;;;;;;;;;;;30.91;57.36;101034.53;4973782;28;65490;-39
2022/03/05 02:41:00;;;;;;;;;;;;;;;30.98;57.49;101034.50;4976476;27;70942;-39
2022/03/05 02:43:30;;;;;;;;;;;;;;;31.01;56.14;101027.81;4976690;27;67002;-39
2022/03/05 02:46:00;;;;;;;;;;;;;;;31.05;56.28;101027.16;4976090;28;70730;-38
2022/03/05 02:48:30;;;;;;;;;;;;;;;31.08;56.14;101024.00;4974227;28;65597;-39
2022/03/05 02:50:59;;;;;;;;;;;;;;;31.10;56.56;101027.34;4973950;28;69373;-39
2022/03/05 02:53:32;;;;;;;;;;;;;;;31.14;55.41;101025.84;4975057;27;65724;-39
2022/03/05 02:56:03;;;;;;;;;;;;;;;31.20;55.43;101031.44;4972607;27;70791;-38
2022/03/05 02:58:34;;;;;;;;;;;;;;;31.24;55.32;101032.69;4972423;28;66984;-38
2022/03/05 03:01:03;;;;;;;;;;;;;;;31.25;55.67;101028.91;4972953;28;69001;-39
2022/03/05 03:03:34;;;;;;;;;;;;;;;31.25;55.79;101020.78;4974622;28;67210;-39
2022/03/05 03:06:05;;;;;;;;;;;;;;;31.30;55.24;101026.38;4972138;28;70217;-39
2022/03/05 03:08:36;;;;;;;;;;;;;;;31.21;55.82;101004.13;4973831;28;66381;-38
2022/03/05 03:11:06;;;;;;;;;;;;;;;31.34;55.96;101022.16;4975255;28;70251;-38
2022/03/05 03:13:37;;;;;;;;;;;;;;;31.33;56.22;101020.50;4971804;28;66374;-38
2022/03/05 03:16:08;;;;;;;;;;;;;;;31.33;56.54;101015.09;4971405;28;71070;-38
2022/03/05 03:18:38;;;;;;;;;;;;;;;31.31;56.69;101017.19;4978122;28;66312;-38
2022/03/05 03:21:08;;;;;;;;;;;;;;;31.31;56.78;101017.19;4957193;28;70279;-38
2022/03/05 03:23:38;;;;;;;;;;;;;;;31.33;56.71;101004.25;4974169;28;66809;-38
2022/03/05 03:26:08;;;;;;;;;;;;;;;31.32;57.28;101002.59;4975899;28;71071;-39
2022/03/05 03:28:37;;;;;;;;;;;;;;;31.30;56.91;101002.81;4976459;28;67086;-40
2022/03/05 03:31:07;;;;;;;;;;;;;;;31.33;56.80;100998.81;4973031;28;70421;-39
2022/03/05 03:33:38;;;;;;;;;;;;;;;31.34;56.65;100986.91;4974180;28;66445;-39
2022/03/05 03:36:07;;;;;;;;;;;;;;;31.38;56.89;100994.44;4974527;27;70358;-39
2022/03/05 03:38:37;;;;;;;;;;;;;;;31.37;57.24;100984.66;4975005;28;66477;-40
2022/03/05 03:41:07;;;;;;;;;;;;;;;31.38;57.29;100978.16;4956864;28;68899;-39
2022/03/05 03:43:37;;;;;;;;;;;;;;;31.39;57.30;100981.69;4974449;28;66133;-40
2022/03/05 03:46:06;;;;;;;;;;;;;;;31.43;56.84;100977.50;4972379;28;69310;-41
2022/03/05 03:48:36;;;;;;;;;;;;;;;31.48;56.64;100969.56;4972027;28;65884;-40
2022/03/05 03:51:06;;;;;;;;;;;;;;;31.48;56.77;100969.56;4974817;28;69432;-39
2022/03/05 03:53:35;;;;;;;;;;;;;;;31.52;56.17;100970.75;4973006;28;65465;-40
2022/03/05 03:56:05;;;;;;;;;;;;;;;31.55;55.92;100959.47;4980673;27;69545;-40
2022/03/05 03:58:35;;;;;;;;;;;;;;;31.58;55.91;100956.28;4971862;28;67332;-41
2022/03/05 04:01:05;;;;;;;;;;;;;;;31.60;55.64;100962.34;4971302;28;70239;-41
2022/03/05 04:03:35;;;;;;;;;;;;;;;31.62;55.47;100953.97;4973896;28;66386;-42
2022/03/05 04:06:05;;;;;;;;;;;;;;;31.61;55.74;100953.13;4974135;28;70146;-40
2022/03/05 04:08:43;;;;;;;;;;;;;;;31.65;55.86;100944.53;4977807;28;65948;-39
2022/03/05 04:11:15;;;;;;;;;;;;;;;31.66;56.76;100944.34;4971678;28;69051;-40
2022/03/05 04:13:47;;;;;;;;;;;;;;;31.66;56.75;100943.50;4980651;28;66819;-40
2022/03/05 04:16:16;;;;;;;;;;;;;;;31.65;57.18;100936.41;4971602;27;70545;-41
2022/03/05 04:18:46;;;;;;;;;;;;;;;31.66;57.05;100927.25;4977803;27;66851;-40
2022/03/05 04:21:16;;;;;;;;;;;;;;;31.67;56.99;100918.88;4954852;28;69977;-40
2022/03/05 04:23:46;;;;;;;;;;;;;;;31.67;57.67;100912.63;4967361;28;66387;-40
2022/03/05 04:26:16;;;;;;;;;;;;;;;31.69;57.46;100905.09;4974614;28;68979;-40
2022/03/05 04:28:46;;;;;;;;;;;;;;;31.70;57.79;100904.03;4971501;28;66512;-39
2022/03/05 04:31:16;;;;;;;;;;;;;;;31.72;58.09;100904.63;4975315;28;69786;-40
2022/03/05 04:33:46;;;;;;;;;;;;;;;31.76;57.67;100900.41;4974456;28;65532;-40
2022/03/05 04:36:15;;;;;;;;;;;;;;;31.77;57.78;100893.94;4972937;28;70070;-40
2022/03/05 04:38:45;;;;;;;;;;;;;;;31.75;58.19;100896.06;4974685;27;66840;-39
2022/03/05 04:41:15;;;;;;;;;;;;;;;31.78;57.41;100892.88;4974478;28;69176;-39
2022/03/05 04:43:44;;;;;;;;;;;;;;;31.88;57.21;100886.94;4977298;28;66438;-39
2022/03/05 04:46:15;;;;;;;;;;;;;;;31.94;56.86;100886.88;4973691;28;70971;-39
2022/03/05 04:48:45;;;;;;;;;;;;;;;32.00;56.23;100891.41;4976434;28;66254;-40
2022/03/05 04:51:14;;;;;;;;;;;;;;;32.08;56.21;100875.88;4976537;28;69363;-39
2022/03/05 04:53:44;;;;;;;;;;;;;;;32.13;55.53;100870.59;4973826;28;66677;-39
2022/03/05 04:56:14;;;;;;;;;;;;;;;32.18;55.89;100862.56;4976123;28;69112;-39
2022/03/05 04:58:43;;;;;;;;;;;;;;;32.24;57.16;100858.94;4972229;28;66398;-39
2022/03/05 05:01:13;;;;;;;;;;;;;;;32.30;57.55;100849.88;4971064;28;69577;-38
2022/03/05 05:03:43;;;;;;;;;;;;;;;32.36;56.50;100851.66;4987876;27;66425;-39
2022/03/05 05:06:14;;;;;;;;;;;;;;;32.42;57.17;100842.59;4971276;28;69516;-40
2022/03/05 05:08:43;;;;;;;;;;;;;;;32.51;56.24;100845.00;4978059;28;63885;-40
2022/03/05 05:11:13;;;;;;;;;;;;;;;32.38;54.87;100825.13;4972893;27;70449;-41
2022/03/05 05:13:43;;;;;;;;;;;;;;;32.10;53.17;100824.91;4975160;28;66510;-39
2022/03/05 05:16:13;;;;;;;;;;;;;;;31.94;52.09;100832.63;4969368;28;70342;-41
2022/03/05 05:19:24;;;;;;;;;;;;;;;31.75;50.23;100823.66;4975257;28;65957;-39
2022/03/05 05:21:34;;;;;;;;;;;;;;;31.62;49.67;100818.38;4972029;28;70365;-41
2022/03/05 05:24:04;;;;;;;;;;;;;;;31.51;49.63;100821.84;4972287;28;65446;-43
2022/03/05 05:26:34;;;;;;;;;;;;;;;31.26;49.17;100792.06;4972736;28;70115;-40
2022/03/05 05:29:04;;;;;;;;;;;;;;;31.27;50.47;100799.16;4973810;28;66919;-41
2022/03/05 05:31:50;;;;;;;;;;;;;;;31.20;49.53;100801.94;4963170;28;70139;-39
2022/03/05 05:34:20;;;;;;;;;;;;;;;31.16;48.93;100792.59;4973944;28;65697;-39
2022/03/05 05:36:50;;;;;;;;;;;;;;;31.16;48.00;100798.84;4973351;28;69163;-39
2022/03/05 05:39:20;;;;;;;;;;;;;;;31.17;46.82;100789.69;4975341;28;66377;-39
2022/03/05 05:41:49;;;;;;;;;;;;;;;31.13;46.02;100787.63;4974016;28;70337;-39
2022/03/05 05:44:19;;;;;;;;;;;;;;;31.13;45.47;100787.63;4972796;28;65488;-39
2022/03/05 05:46:49;;;;;;;;;;;;;;;31.11;45.10;100778.91;4975501;28;70030;-39
2022/03/05 05:49:21;;;;;;;;;;;;;;;31.08;43.98;100774.75;4972424;28;66557;-39
2022/03/05 05:51:51;;;;;;;;;;;;;;;31.06;43.47;100779.56;4975308;28;69160;-39
2022/03/05 05:54:20;;;;;;;;;;;;;;;31.07;42.99;100773.09;4972425;28;65983;-39
2022/03/05 05:56:50;;;;;;;;;;;;;;;31.05;42.05;100764.38;4973526;28;70200;-40
2022/03/05 05:59:20;;;;;;;;;;;;;;;31.03;42.32;100763.75;4974104;27;66623;-39
2022/03/05 06:01:50;;;;;;;;;;;;;;;31.03;41.49;100761.03;4969125;28;70023;-40
2022/03/05 06:04:20;;;;;;;;;;;;;;;30.99;41.17;100753.63;4973329;27;66832;-40
2022/03/05 06:06:49;;;;;;;;;;;;;;;31.01;40.98;100751.47;4975909;28;70382;-39
2022/03/05 06:09:19;;;;;;;;;;;;;;;31.00;40.83;100745.25;4975883;28;66340;-39
2022/03/05 06:11:49;;;;;;;;;;;;;;;31.01;40.46;100741.50;4976364;27;70536;-39
2022/03/05 06:14:19;;;;;;;;;;;;;;;30.98;40.24;100752.78;4975811;28;66397;-39
2022/03/05 06:16:49;;;;;;;;;;;;;;;31.00;40.54;100739.81;4975726;28;69996;-39
2022/03/05 06:19:19;;;;;;;;;;;;;;;30.99;40.86;100737.34;4972405;28;66382;-39
2022/03/05 06:21:50;;;;;;;;;;;;;;;30.96;40.67;100738.63;4968105;28;69889;-39
2022/03/05 06:24:21;;;;;;;;;;;;;;;30.97;40.24;100734.84;4972149;28;65321;-39
2022/03/05 06:26:51;;;;;;;;;;;;;;;30.96;39.46;100729.69;4967175;28;70299;-41
2022/03/05 06:29:20;;;;;;;;;;;;;;;30.97;40.67;100726.72;4970305;28;67203;-39
2022/03/05 06:31:52;;;;;;;;;;;;;;;30.96;40.96;100722.38;4974233;28;69900;-41
2022/03/05 06:34:22;;;;;;;;;;;;;;;30.97;40.46;100715.91;4979023;28;65886;-40
2022/03/05 06:36:52;;;;;;;;;;;;;;;30.95;40.10;100709.88;4971745;28;70305;-40
2022/03/05 06:39:22;;;;;;;;;;;;;;;30.92;40.23;100710.31;4977951;28;65629;-38
2022/03/05 06:41:51;;;;;;;;;;;;;;;30.94;39.70;100700.09;4980019;28;70318;-42
2022/03/05 06:44:21;;;;;;;;;;;;;;;30.94;39.91;100702.81;4969333;28;66199;-40
2022/03/05 06:46:51;;;;;;;;;;;;;;;30.95;40.00;100693.63;4978430;28;69877;-40
2022/03/05 06:49:20;;;;;;;;;;;;;;;30.94;38.81;100690.09;4975764;28;65716;-40
2022/03/05 06:51:50;;;;;;;;;;;;;;;30.97;38.61;100686.09;4995978;28;69545;-41
2022/03/05 06:54:20;;;;;;;;;;;;;;;30.94;40.09;100686.56;4979286;28;66653;-39
2022/03/05 06:56:49;;;;;;;;;;;;;;;30.92;40.18;100684.09;4966036;28;70185;-40
2022/03/05 06:59:19;;;;;;;;;;;;;;;30.91;39.53;100681.59;4989029;28;66022;-39
2022/03/05 07:01:49;;;;;;;;;;;;;;;30.88;39.16;100666.63;4979672;28;69906;-39
2022/03/05 07:04:19;;;;;;;;;;;;;;;30.89;39.47;100667.44;4981758;27;66895;-40
2022/03/05 07:06:49;;;;;;;;;;;;;;;30.88;39.16;100666.63;4980640;27;70525;-39
2022/03/05 07:09:18;;;;;;;;;;;;;;;30.85;39.68;100652.72;4979260;27;66150;-40
2022/03/05 07:11:49;;;;;;;;;;;;;;;30.84;39.42;100653.75;4979948;27;69746;-40
2022/03/05 07:14:18;;;;;;;;;;;;;;;30.80;39.58;100649.84;4979122;28;66493;-41
2022/03/05 07:16:48;;;;;;;;;;;;;;;30.77;39.06;100653.78;4978641;28;69877;-39
2022/03/05 07:19:18;;;;;;;;;;;;;;;30.81;39.15;100633.34;4974561;27;66893;-39
2022/03/05 07:21:47;;;;;;;;;;;;;;;30.82;38.71;100629.63;4974014;28;69646;-39
2022/03/05 07:24:17;;;;;;;;;;;;;;;30.82;38.78;100626.09;4974636;28;65663;-38
2022/03/05 07:26:46;;;;;;;;;;;;;;;30.79;38.46;100624.63;4975978;28;70346;-39
2022/03/05 07:29:16;;;;;;;;;;;;;;;30.80;38.25;100620.06;4979640;28;66876;-39
2022/03/05 07:31:46;;;;;;;;;;;;;;;30.75;38.76;100623.41;4973320;28;70692;-39
2022/03/05 07:34:16;;;;;;;;;;;;;;;30.77;38.56;100609.66;4974582;28;66272;-42
2022/03/05 07:36:46;;;;;;;;;;;;;;;30.76;37.60;100605.25;4956401;28;69572;-39
2022/03/05 07:39:16;;;;;;;;;;;;;;;30.72;37.55;100608.44;4970204;28;66721;-41
2022/03/05 07:41:48;;;;;;;;;;;;;;;30.68;37.82;100599.13;4975620;28;70324;-39
2022/03/05 07:44:19;;;;;;;;;;;;;;;30.64;37.29;100595.19;4975394;28;66006;-40
2022/03/05 07:46:49;;;;;;;;;;;;;;;30.64;37.57;100594.38;4976908;28;71110;-39
2022/03/05 07:49:19;;;;;;;;;;;;;;;30.60;37.29;100588.59;4975088;28;66386;-39
2022/03/05 07:51:49;;;;;;;;;;;;;;;30.60;37.35;100588.59;4964058;28;69817;-39
2022/03/05 07:54:19;;;;;;;;;;;;;;;30.57;37.41;100591.75;4973994;28;66077;-39
2022/03/05 07:56:49;;;;;;;;;;;;;;;30.57;37.23;100594.47;4975786;28;69271;-39
2022/03/05 07:59:19;;;;;;;;;;;;;;;30.54;37.45;100600.31;4974739;28;66062;-40
2022/03/05 08:01:49;;;;;;;;;;;;;;;30.51;38.45;100595.38;4973444;28;70751;-39
2022/03/05 08:04:19;;;;;;;;;;;;;;;30.52;38.29;100597.00;4974639;28;66443;-39
2022/03/05 08:06:49;;;;;;;;;;;;;;;30.50;38.26;100602.63;4973856;28;70288;-39
2022/03/05 08:09:18;;;;;;;;;;;;;;;30.51;38.34;100595.38;4974812;28;66734;-40
2022/03/05 08:11:59;;;;;;;;;;;;;;;30.50;38.46;100588.28;4972678;28;70046;-38
2022/03/05 08:14:29;;;;;;;;;;;;;;;30.48;38.45;100585.00;4974794;28;66472;-38
2022/03/05 08:16:58;;;;;;;;;;;;;;;30.48;38.89;100585.81;4975338;28;70375;-38
2022/03/05 08:19:28;;;;;;;;;;;;;;;30.46;39.06;100582.50;4978226;27;66969;-39
2022/03/05 08:22:18;;;;;;;;;;;;;;;30.46;38.63;100587.91;4976962;27;70193;-38
2022/03/05 08:24:47;;;;;;;;;;;;;;;30.46;39.36;100576.25;4977074;28;66442;-38
2022/03/05 08:27:17;;;;;;;;;;;;;;;30.47;39.67;100588.72;4972887;28;70185;-38
2022/03/05 08:29:47;;;;;;;;;;;;;;;30.46;39.63;100598.72;4973602;28;66530;-39
2022/03/05 08:32:17;;;;;;;;;;;;;;;30.44;39.48;100595.41;4975962;28;69970;-39
2022/03/05 08:34:47;;;;;;;;;;;;;;;30.44;39.75;100597.28;4993272;27;65791;-40
2022/03/05 08:37:19;;;;;;;;;;;;;;;30.41;39.30;100587.75;4973194;28;70516;-39
2022/03/05 08:39:53;;;;;;;;;;;;;;;30.43;39.90;100595.66;4977822;28;65854;-39
2022/03/05 08:42:26;;;;;;;;;;;;;;;30.40;39.26;100605.03;4975160;28;70293;-39
2022/03/05 08:44:56;;;;;;;;;;;;;;;30.44;39.98;100621.66;4975751;28;65721;-39
2022/03/05 08:47:26;;;;;;;;;;;;;;;30.43;40.51;100620.00;4976502;28;70167;-38
2022/03/05 08:49:57;;;;;;;;;;;;;;;30.41;40.96;100611.28;4974721;28;65810;-39
2022/03/05 08:52:29;;;;;;;;;;;;;;;30.44;39.96;100610.84;4976994;27;70076;-38
2022/03/05 08:55:01;;;;;;;;;;;;;;;30.43;40.10;100599.19;4977070;28;65516;-37
2022/03/05 08:57:31;;;;;;;;;;;;;;;30.41;39.73;100603.16;4974918;28;69302;-39
2022/03/05 09:00:01;;;;;;;;;;;;;;;30.41;41.04;100595.03;4977704;28;66563;-38
2022/03/05 09:02:31;;;;;;;;;;;;;;;30.45;41.57;100591.69;4975102;28;70059;-38
2022/03/05 09:05:01;;;;;;;;;;;;;;;30.64;47.62;100602.50;4975415;28;67137;-38
2022/03/05 09:07:32;;;;;;;;;;;;;;;30.82;49.02;100621.50;4970482;28;70607;-38
2022/03/05 09:10:03;;;;;;;;;;;;;;;31.00;50.43;100620.63;4974483;28;65364;-38
2022/03/05 09:12:36;;;;;;;;;;;;;;;31.12;51.78;100608.00;4975011;28;69952;-37
2022/03/05 09:15:06;;;;;;;;;;;;;;;31.27;53.49;100604.03;4966271;28;66245;-38
2022/03/05 09:17:37;;;;;;;;;;;;;;;31.39;54.20;100607.66;4975097;28;70981;-39
2022/03/05 09:20:07;;;;;;;;;;;;;;;31.50;54.65;100604.16;4975411;28;66561;-37
2022/03/05 09:22:40;;;;;;;;;;;;;;;31.57;55.44;100610.31;4976658;28;70617;-45
2022/03/05 09:25:13;;;;;;;;;;;;;;;31.71;54.86;100620.97;4984904;28;66803;-37
2022/03/05 09:27:44;;;;;;;;;;;;;;;31.74;55.28;100623.19;4978890;28;70942;-38
2022/03/05 09:30:15;;;;;;;;;;;;;;;31.82;54.95;100622.88;4978299;27;66901;-38
2022/03/05 09:32:48;;;;;;;;;;;;;;;31.87;55.48;100625.69;4974421;28;69259;-37
2022/03/05 09:35:18;;;;;;;;;;;;;;;31.95;55.51;100633.50;4974908;28;66208;-38
2022/03/05 09:37:53;;;;;;;;;;;;;;;31.99;55.81;100637.44;4977822;28;70058;-38
2022/03/05 09:40:23;;;;;;;;;;;;;;;32.03;55.62;100630.47;4986757;28;66638;-38
2022/03/05 09:42:54;;;;;;;;;;;;;;;32.05;55.31;100644.63;4984438;28;68992;-38
2022/03/05 09:45:25;;;;;;;;;;;;;;;32.09;55.94;100655.00;4975081;28;65550;-37
2022/03/05 09:47:56;;;;;;;;;;;;;;;32.12;55.08;100651.81;4974940;28;70381;-37
2022/03/05 09:50:32;;;;;;;;;;;;;;;32.13;56.13;100657.03;4977839;27;66182;-37
2022/03/05 09:53:02;;;;;;;;;;;;;;;32.16;56.26;100653.03;4974805;28;69418;-39
2022/03/05 09:55:32;;;;;;;;;;;;;;;32.18;55.89;100654.44;4975072;28;66829;-38
2022/03/05 09:58:02;;;;;;;;;;;;;;;32.22;56.28;100657.50;4975718;28;70447;-39
2022/03/05 10:00:32;;;;;;;;;;;;;;;32.22;55.87;100657.50;4961878;28;66213;-37
2022/03/05 10:03:05;;;;;;;;;;;;;;;32.24;56.01;100666.25;4976431;28;70164;-38
2022/03/05 10:05:37;;;;;;;;;;;;;;;32.23;55.93;100661.88;4979107;28;65834;-38
2022/03/05 10:08:19;;;;;;;;;;;;;;;32.26;56.09;100666.81;4975512;28;69335;-38
2022/03/05 10:11:01;;;;;;;;;;;;;;;32.28;55.95;100670.94;4978726;28;66599;-38
2022/03/05 10:13:33;;;;;;;;;;;;;;;32.31;55.74;100675.09;4976908;28;69077;-38
2022/03/05 10:16:05;;;;;;;;;;;;;;;32.22;56.24;100665.66;4977028;28;66274;-41
2022/03/05 10:18:39;;;;;;;;;;;;;;;32.34;56.12;100685.47;4978700;28;70444;-38
2022/03/05 10:21:10;;;;;;;;;;;;;;;32.35;56.12;100689.03;4978732;28;66421;-37
2022/03/05 10:23:42;;;;;;;;;;;;;;;32.33;56.06;100697.41;4980291;27;70534;-38
2022/03/05 10:26:12;;;;;;;;;;;;;;;32.33;56.41;100700.13;4976635;28;66662;-37
2022/03/05 10:28:42;;;;;;;;;;;;;;;32.36;56.21;100715.94;4966100;28;70952;-38
2022/03/05 10:31:16;;;;;;;;;;;;;;;32.35;56.59;100708.88;4978734;28;58647;-37
2022/03/05 10:33:52;;;;;;;;;;;;;;;32.38;56.69;100718.44;4977820;28;70075;-38
2022/03/05 10:36:23;;;;;;;;;;;;;;;32.35;57.43;100708.03;4979491;27;66353;-38
2022/03/05 10:38:56;;;;;;;;;;;;;;;32.37;57.00;100714.03;4972033;28;70507;-38
2022/03/05 10:41:37;;;;;;;;;;;;;;;32.37;57.39;100712.16;4970845;28;66072;-38
2022/03/05 10:44:15;;;;;;;;;;;;;;;32.35;57.41;100719.72;4975504;28;69882;-37
2022/03/05 10:46:46;;;;;;;;;;;;;;;32.37;57.59;100719.47;4977466;27;66340;-39
2022/03/05 10:49:38;;;;;;;;;;;;;;;32.38;57.23;100719.25;4977195;28;70254;-38
2022/03/05 10:52:10;;;;;;;;;;;;;;;32.42;56.59;100725.03;4954496;28;65583;-38
2022/03/05 10:54:42;;;;;;;;;;;;;;;32.19;56.89;100693.25;4977419;28;71414;-37
2022/03/05 10:57:23;;;;;;;;;;;;;;;32.40;57.13;100724.44;4960468;28;65249;-38
2022/03/05 10:59:53;;;;;;;;;;;;;;;32.38;57.22;100724.69;4975778;28;69291;-39
2022/03/05 11:02:23;;;;;;;;;;;;;;;32.43;57.52;100722.09;4973491;28;66799;-42
2022/03/05 11:04:54;;;;;;;;;;;;;;;32.34;57.58;100728.91;4976446;28;70508;-40
2022/03/05 11:07:25;;;;;;;;;;;;;;;32.23;58.21;100738.72;4979299;28;66044;-39
2022/03/05 11:09:56;;;;;;;;;;;;;;;32.19;58.53;100747.53;4974342;28;69134;-39
2022/03/05 11:12:27;;;;;;;;;;;;;;;32.11;58.53;100753.28;4975429;28;66485;-38
2022/03/05 11:14:57;;;;;;;;;;;;;;;32.05;58.17;100761.31;4976533;28;70450;-38
2022/03/05 11:17:26;;;;;;;;;;;;;;;32.01;58.67;100757.41;4976467;28;66125;-38
2022/03/05 11:19:56;;;;;;;;;;;;;;;32.00;58.94;100755.72;4973105;28;68407;-38
2022/03/05 11:22:27;;;;;;;;;;;;;;;31.97;58.44;100772.47;4975461;28;66596;-41
2022/03/05 11:24:57;;;;;;;;;;;;;;;31.93;59.34;100771.28;4974391;28;69066;-39
2022/03/05 11:27:29;;;;;;;;;;;;;;;31.92;58.93;100775.03;4968979;28;66941;-38
2022/03/05 11:30:00;;;;;;;;;;;;;;;31.87;58.80;100772.16;4976291;28;69988;-38
2022/03/05 11:32:31;;;;;;;;;;;;;;;31.87;59.10;100788.44;4973360;28;66348;-42
2022/03/05 11:35:01;;;;;;;;;;;;;;;31.88;58.95;100783.88;4978765;28;70375;-40
2022/03/05 11:37:31;;;;;;;;;;;;;;;31.84;58.93;100786.19;4973290;28;66213;-41
2022/03/05 11:40:02;;;;;;;;;;;;;;;31.86;58.79;100791.41;4970376;28;69172;-39
2022/03/05 11:42:34;;;;;;;;;;;;;;;31.82;59.41;100788.31;4978580;28;65668;-40
2022/03/05 11:45:36;;;;;;;;;;;;;;;31.81;58.99;100795.59;4977790;28;69638;-45
2022/03/05 11:48:36;;;;;;;;;;;;;;;31.78;59.37;100806.09;4953789;28;65529;-39
2022/03/05 11:51:14;;;;;;;;;;;;;;;31.76;58.90;100810.91;4961109;28;70313;-39
2022/03/05 11:53:44;;;;;;;;;;;;;;;31.75;59.67;100811.97;4991838;28;65784;-40
2022/03/05 11:56:23;;;;;;;;;;;;;;;31.74;58.90;100804.91;5039534;27;70305;-40
2022/03/05 11:58:53;;;;;;;;;;;;;;;31.70;58.95;100809.13;4993868;28;65530;-40
2022/03/05 12:01:32;;;;;;;;;;;;;;;31.69;58.97;100807.47;4994325;27;69270;-40
2022/03/05 12:04:19;;;;;;;;;;;;;;;31.70;58.59;100814.53;4980461;28;66973;-40
2022/03/05 12:06:55;;;;;;;;;;;;;;;31.66;59.36;100819.59;4967223;28;70302;-41
2022/03/05 12:09:31;;;;;;;;;;;;;;;31.64;59.16;100815.44;4978746;27;66631;-42
2022/03/05 12:12:06;;;;;;;;;;;;;;;31.64;59.06;100826.31;4986201;28;69924;-42
2022/03/05 12:14:54;;;;;;;;;;;;;;;31.65;58.85;100830.66;4990880;27;66872;-40
2022/03/05 12:17:25;;;;;;;;;;;;;;;31.59;59.39;100835.09;4987537;28;70694;-41
2022/03/05 12:19:55;;;;;;;;;;;;;;;31.58;59.81;100839.69;4981829;27;65444;-42
2022/03/05 12:22:25;;;;;;;;;;;;;;;31.60;59.03;100836.78;4982876;28;70292;-40
2022/03/05 12:24:55;;;;;;;;;;;;;;;31.59;59.62;100841.38;4974715;28;66298;-43
2022/03/05 12:27:28;;;;;;;;;;;;;;;31.58;60.10;100837.00;4972974;28;70590;-42
2022/03/05 12:29:58;;;;;;;;;;;;;;;31.58;60.18;100839.69;4979367;28;66129;-42
2022/03/05 12:32:31;;;;;;;;;;;;;;;31.58;60.43;100845.13;4974776;28;70319;-41
2022/03/05 12:35:05;;;;;;;;;;;;;;;31.57;60.47;100845.38;4984721;27;65520;-42
2022/03/05 12:37:35;;;;;;;;;;;;;;;31.56;60.31;100847.22;4970018;28;69046;-40
2022/03/05 12:40:06;;;;;;;;;;;;;;;31.52;60.84;100840.63;4970870;28;67821;-39
2022/03/05 12:42:42;;;;;;;;;;;;;;;31.51;60.18;100852.53;4965153;28;70550;-39
2022/03/05 12:45:15;;;;;;;;;;;;;;;31.49;60.29;100851.91;4974354;28;66494;-39
2022/03/05 12:47:45;;;;;;;;;;;;;;;31.48;60.14;100863.81;4972071;28;69417;-40
2022/03/05 12:50:24;;;;;;;;;;;;;;;31.46;60.46;100863.22;4963002;28;66046;-41
2022/03/05 12:53:10;;;;;;;;;;;;;;;31.45;60.98;100866.94;4976153;28;70703;-42
2022/03/05 12:55:41;;;;;;;;;;;;;;;31.48;60.68;100866.53;4974937;28;65545;-40